Time;durP1;ratioP1;P1;durP2;ratioP2;P2;SDS_P1;SDS_P2;PMS_P1;PMS_P2;Temp;Humidity;BMP_temperature;BMP_pressure;BME280_temperature;BME280_humidity;BME280_pressure;Samples;Min_cycle;Max_cycle;Signal;HPM_P1;HPM_P2
2023/05/29 00:00:40;;;;;;;10.82;2.95;;;;;;;10.90;80.55;102482.84;6252888;22;20012;-79
2023/05/29 00:03:06;;;;;;;14.15;3.17;;;;;;;10.88;81.22;102482.47;6249080;22;20463;-78
2023/05/29 00:05:33;;;;;;;14.32;2.50;;;;;;;10.86;81.41;102471.47;6249216;22;20020;-77
2023/05/29 00:08:00;;;;;;;16.05;2.85;;;;;;;10.81;81.19;102478.00;6250196;22;20071;-78
2023/05/29 00:10:26;;;;;;;7.38;2.42;;;;;;;10.79;81.62;102476.91;6247446;22;20095;-79
2023/05/29 00:12:53;;;;;;;12.10;3.08;;;;;;;10.74;81.63;102472.00;6251651;22;20020;-78
2023/05/29 00:15:20;;;;;;;15.20;3.10;;;;;;;10.72;81.64;102480.41;6247781;22;20108;-79
2023/05/29 00:17:46;;;;;;;16.65;3.17;;;;;;;10.69;81.74;102473.19;6248319;22;20020;-78
2023/05/29 00:20:13;;;;;;;11.65;2.80;;;;;;;10.68;81.83;102469.03;6247752;22;20024;-78
2023/05/29 00:22:41;;;;;;;12.43;3.20;;;;;;;10.66;81.69;102469.41;6249280;22;20112;-79
2023/05/29 00:25:08;;;;;;;15.65;3.08;;;;;;;10.62;81.78;102470.63;6249717;22;20025;-80
2023/05/29 00:27:35;;;;;;;13.75;2.65;;;;;;;10.59;81.99;102468.75;6249323;22;20040;-79
2023/05/29 00:30:04;;;;;;;14.15;2.50;;;;;;;10.58;82.02;102475.22;6247841;22;20029;-79
2023/05/29 00:32:30;;;;;;;14.98;2.97;;;;;;;10.55;81.81;102471.44;6248465;22;20071;-79
2023/05/29 00:34:57;;;;;;;16.70;2.70;;;;;;;10.52;81.84;102477.56;6249201;22;20457;-79
2023/05/29 00:37:24;;;;;;;10.75;2.92;;;;;;;10.50;81.88;102476.44;6249349;22;20220;-80
2023/05/29 00:39:51;;;;;;;10.45;2.63;;;;;;;10.49;81.72;102482.91;6250008;22;20019;-79
2023/05/29 00:42:17;;;;;;;9.25;2.67;;;;;;;10.45;81.90;102488.28;6248229;22;20501;-79
2023/05/29 00:44:44;;;;;;;15.95;3.75;;;;;;;10.44;81.82;102486.00;6250246;22;20036;-79
2023/05/29 00:47:11;;;;;;;13.55;3.17;;;;;;;10.40;81.63;102487.97;6251259;22;20412;-79
2023/05/29 00:49:38;;;;;;;10.35;2.50;;;;;;;10.36;81.96;102488.00;6250170;22;20045;-79
2023/05/29 00:52:07;;;;;;;9.85;2.45;;;;;;;10.33;81.79;102488.78;6248657;22;20047;-79
2023/05/29 00:54:34;;;;;;;15.88;3.10;;;;;;;10.31;82.33;102494.50;6250424;22;20030;-79
2023/05/29 00:57:03;;;;;;;16.92;3.10;;;;;;;10.28;82.14;102487.31;6248367;22;20438;-79
2023/05/29 00:59:32;;;;;;;11.40;3.15;;;;;;;10.28;82.41;102503.28;6247942;22;20458;-79
2023/05/29 01:02:02;;;;;;;16.55;2.47;;;;;;;10.25;82.37;102492.66;6248526;22;20017;-79
2023/05/29 01:04:33;;;;;;;8.23;2.35;;;;;;;10.24;82.33;102497.22;6247922;22;20029;-79
2023/05/29 01:07:03;;;;;;;13.73;2.58;;;;;;;10.22;82.29;102501.44;6248179;22;20023;-79
2023/05/29 01:09:31;;;;;;;13.48;3.17;;;;;;;10.18;82.34;102496.13;6250362;22;20075;-79
2023/05/29 01:12:03;;;;;;;13.40;2.60;;;;;;;10.16;82.81;102497.66;6223193;22;20434;-79
2023/05/29 01:15:01;;;;;;;13.93;2.35;;;;;;;10.14;82.14;102500.72;6249975;22;20020;-79
2023/05/29 01:17:49;;;;;;;12.38;2.67;;;;;;;10.13;82.43;102509.84;6248128;22;20443;-80
2023/05/29 01:20:31;;;;;;;9.63;3.00;;;;;;;10.10;82.27;102507.97;6249194;22;20068;-78
2023/05/29 01:23:23;;;;;;;11.35;2.08;;;;;;;10.07;82.40;102511.41;6248375;22;20814;-78
2023/05/29 01:26:20;;;;;;;14.95;3.10;;;;;;;10.05;82.11;102513.72;6250341;22;20017;-80
2023/05/29 01:28:49;;;;;;;18.48;2.95;;;;;;;10.01;82.79;102519.06;6249240;22;20079;-80
2023/05/29 01:31:19;;;;;;;11.70;2.63;;;;;;;9.97;82.76;102529.00;6247499;22;20017;-80
2023/05/29 01:33:57;;;;;;;18.30;2.90;;;;;;;9.97;82.58;102533.56;6223411;22;20099;-80
2023/05/29 01:36:24;;;;;;;8.73;2.20;;;;;;;9.97;82.99;102541.53;6248939;22;20258;-80
2023/05/29 01:38:52;;;;;;;13.65;2.08;;;;;;;9.93;82.82;102532.81;6222991;22;20020;-79
2023/05/29 01:41:21;;;;;;;9.00;2.67;;;;;;;9.89;83.04;102545.38;6249296;22;20017;-79
2023/05/29 01:43:48;;;;;;;14.98;2.42;;;;;;;9.85;83.13;102534.00;6248859;22;20439;-78
2023/05/29 01:46:18;;;;;;;8.82;2.53;;;;;;;9.82;83.58;102540.13;6222375;22;20116;-78
2023/05/29 01:48:46;;;;;;;9.18;2.30;;;;;;;9.81;83.51;102546.56;6250095;22;20055;-78
2023/05/29 01:51:13;;;;;;;16.60;2.70;;;;;;;9.78;83.47;102544.69;6249123;22;20016;-79
2023/05/29 01:53:41;;;;;;;13.45;3.17;;;;;;;9.77;83.55;102543.19;6249434;22;20138;-79
2023/05/29 01:56:08;;;;;;;12.25;2.50;;;;;;;9.75;83.75;102550.78;6247682;22;20024;-79
2023/05/29 01:58:37;;;;;;;15.60;2.53;;;;;;;9.71;84.01;102548.16;6247610;22;20025;-79
2023/05/29 02:01:06;;;;;;;13.00;2.65;;;;;;;9.69;84.19;102547.78;6247833;22;20395;-79
2023/05/29 02:03:33;;;;;;;13.45;3.05;;;;;;;9.67;84.01;102556.16;6248827;22;20021;-79
2023/05/29 02:06:01;;;;;;;14.40;2.45;;;;;;;9.65;84.13;102555.78;6250205;22;20351;-79
2023/05/29 02:08:27;;;;;;;9.80;1.98;;;;;;;9.63;84.31;102562.63;6249280;22;20017;-79
2023/05/29 02:10:54;;;;;;;13.45;2.15;;;;;;;9.59;84.43;102554.69;6248206;22;20071;-79
2023/05/29 02:13:21;;;;;;;8.90;2.47;;;;;;;9.59;84.46;102559.25;6247235;22;20017;-79
2023/05/29 02:15:48;;;;;;;14.18;2.47;;;;;;;9.55;84.45;102548.63;6250608;22;20029;-79
2023/05/29 02:18:17;;;;;;;17.33;2.88;;;;;;;9.54;84.49;102549.78;6246891;22;20027;-79
2023/05/29 02:20:45;;;;;;;10.68;2.33;;;;;;;9.54;84.50;102544.47;6248004;22;20451;-79
2023/05/29 02:23:20;;;;;;;11.95;2.15;;;;;;;9.50;84.54;102533.09;6223967;22;20127;-79
2023/05/29 02:25:47;;;;;;;12.98;2.35;;;;;;;9.48;84.55;102534.63;6248368;22;20032;-79
2023/05/29 02:28:14;;;;;;;14.10;2.95;;;;;;;9.46;84.53;102539.56;6247472;22;20472;-79
2023/05/29 02:30:40;;;;;;;15.25;2.92;;;;;;;9.44;84.74;102536.53;6248535;22;20023;-79
2023/05/29 02:33:08;;;;;;;13.15;2.80;;;;;;;9.43;84.58;102540.34;6247158;22;20094;-79
2023/05/29 02:35:35;;;;;;;14.25;2.40;;;;;;;9.39;84.98;102536.94;6247697;22;20031;-78
2023/05/29 02:38:03;;;;;;;12.23;2.28;;;;;;;9.36;85.17;102541.88;6250038;22;20484;-79
2023/05/29 02:40:30;;;;;;;22.38;2.55;;;;;;;9.35;85.19;102550.25;6249404;22;20470;-78
2023/05/29 02:42:57;;;;;;;14.38;2.53;;;;;;;9.31;85.27;102550.25;6248079;22;20043;-79
2023/05/29 02:45:24;;;;;;;8.63;2.00;;;;;;;9.30;85.61;102553.28;6222043;22;20028;-78
2023/05/29 02:47:50;;;;;;;16.42;2.85;;;;;;;9.28;84.80;102550.28;6247556;22;20419;-79
2023/05/29 02:50:17;;;;;;;10.80;2.35;;;;;;;9.27;85.59;102548.75;6247331;22;20044;-78
2023/05/29 02:52:43;;;;;;;11.85;2.50;;;;;;;9.26;85.68;102552.56;6249726;22;20036;-78
2023/05/29 02:55:10;;;;;;;8.02;2.50;;;;;;;9.23;85.70;102548.00;6222256;22;20437;-78
2023/05/29 02:57:37;;;;;;;8.32;2.20;;;;;;;9.21;85.74;102547.63;6247421;22;20049;-79
2023/05/29 03:00:07;;;;;;;10.57;2.28;;;;;;;9.19;85.73;102555.25;6248290;22;20104;-78
2023/05/29 03:02:35;;;;;;;8.63;2.15;;;;;;;9.18;85.78;102545.78;6248950;22;20015;-79
2023/05/29 03:05:03;;;;;;;13.85;2.28;;;;;;;9.13;86.09;102560.22;6247493;22;20572;-79
2023/05/29 03:07:29;;;;;;;12.23;2.17;;;;;;;9.12;86.03;102563.25;6249217;22;20509;-79
2023/05/29 03:09:56;;;;;;;12.23;2.75;;;;;;;9.11;85.74;102559.09;6249821;22;20016;-79
2023/05/29 03:12:27;;;;;;;9.65;2.17;;;;;;;9.10;86.03;102554.91;6247532;22;20023;-79
2023/05/29 03:14:56;;;;;;;9.40;1.77;;;;;;;9.09;86.20;102559.47;6247874;22;20016;-79
2023/05/29 03:17:23;;;;;;;7.78;2.15;;;;;;;9.07;86.01;102559.09;6246368;22;20442;-78
2023/05/29 03:19:50;;;;;;;8.15;2.20;;;;;;;9.05;86.34;102550.00;6247958;22;20104;-79
2023/05/29 03:22:17;;;;;;;7.53;2.22;;;;;;;9.04;86.37;102541.25;6246991;22;20055;-79
2023/05/29 03:24:44;;;;;;;7.25;2.33;;;;;;;9.01;86.13;102537.47;6222251;22;20024;-79
2023/05/29 03:27:12;;;;;;;6.45;2.28;;;;;;;8.99;86.22;102539.75;6246994;22;20043;-78
2023/05/29 03:29:40;;;;;;;9.25;1.80;;;;;;;8.99;86.34;102550.38;6247416;22;20192;-79
2023/05/29 03:32:07;;;;;;;14.23;1.88;;;;;;;8.97;86.34;102550.00;6246386;22;20017;-79
2023/05/29 03:34:34;;;;;;;11.27;1.95;;;;;;;8.95;86.49;102549.63;6247003;22;20025;-79
2023/05/29 03:37:03;;;;;;;13.32;2.38;;;;;;;8.94;86.18;102547.34;6247533;22;20020;-79
2023/05/29 03:39:31;;;;;;;12.95;2.97;;;;;;;8.95;86.67;102546.22;6246847;22;20017;-79
2023/05/29 03:41:58;;;;;;;6.78;1.73;;;;;;;8.94;86.37;102553.44;6247129;22;20020;-79
2023/05/29 03:44:24;;;;;;;15.80;2.80;;;;;;;8.94;86.32;102550.78;6246552;22;20024;-79
2023/05/29 03:46:51;;;;;;;10.23;1.92;;;;;;;8.93;86.48;102549.25;6246830;22;20029;-78
2023/05/29 03:49:18;;;;;;;5.93;2.17;;;;;;;8.91;86.33;102550.78;6246885;22;20017;-79
2023/05/29 03:51:45;;;;;;;18.20;2.13;;;;;;;8.91;86.23;102554.19;6247485;22;20103;-79
2023/05/29 03:54:11;;;;;;;12.35;2.38;;;;;;;8.91;85.95;102556.84;6249113;22;20016;-78
2023/05/29 03:56:38;;;;;;;9.15;2.00;;;;;;;8.93;86.03;102565.19;6247616;22;20016;-79
2023/05/29 03:59:05;;;;;;;9.52;2.35;;;;;;;8.92;85.69;102553.06;6246648;22;20027;-78
2023/05/29 04:01:32;;;;;;;7.45;1.92;;;;;;;8.97;86.14;102557.22;6246673;22;20013;-78
2023/05/29 04:03:59;;;;;;;10.70;2.10;;;;;;;8.99;85.74;102561.00;6247540;22;20386;-78
2023/05/29 04:06:26;;;;;;;18.58;2.22;;;;;;;9.00;85.50;102559.88;6248555;22;20013;-78
2023/05/29 04:08:53;;;;;;;11.25;2.78;;;;;;;9.02;85.33;102556.81;6249293;22;20017;-78
2023/05/29 04:11:22;;;;;;;13.48;2.10;;;;;;;9.06;85.39;102562.13;6221379;22;20071;-78
2023/05/29 04:13:49;;;;;;;12.77;2.80;;;;;;;9.07;85.17;102569.72;6222187;22;20079;-78
2023/05/29 04:16:15;;;;;;;10.98;2.42;;;;;;;9.10;85.11;102565.53;6245533;22;20044;-78
2023/05/29 04:18:42;;;;;;;14.52;2.55;;;;;;;9.12;85.21;102569.31;6249326;22;20083;-79
2023/05/29 04:21:10;;;;;;;9.90;2.60;;;;;;;9.15;85.02;102563.25;6246869;22;20017;-78
2023/05/29 04:23:36;;;;;;;9.75;2.30;;;;;;;9.20;84.88;102580.66;6248867;22;20027;-78
2023/05/29 04:26:05;;;;;;;8.65;2.15;;;;;;;9.23;84.66;102585.22;6247424;22;20430;-78
2023/05/29 04:28:33;;;;;;;10.70;2.20;;;;;;;9.27;84.44;102575.31;6221211;22;20462;-78
2023/05/29 04:31:00;;;;;;;9.77;1.90;;;;;;;9.31;84.16;102579.50;6247417;22;20020;-79
2023/05/29 04:33:29;;;;;;;12.02;2.30;;;;;;;9.39;83.96;102576.81;6246616;22;20016;-79
2023/05/29 04:35:56;;;;;;;16.20;2.30;;;;;;;9.46;83.48;102584.75;6247377;22;20017;-78
2023/05/29 04:38:25;;;;;;;8.27;2.10;;;;;;;9.57;83.03;102586.22;6248525;22;20398;-78
2023/05/29 04:40:57;;;;;;;13.73;2.50;;;;;;;9.77;82.47;102593.72;6247471;22;20025;-78
2023/05/29 04:43:26;;;;;;;15.07;2.50;;;;;;;9.88;82.34;102602.41;6245695;22;20031;-78
2023/05/29 04:46:02;;;;;;;15.27;2.50;;;;;;;10.99;79.24;102603.03;6247346;22;20103;-79
2023/05/29 04:48:30;;;;;;;14.15;2.83;;;;;;;11.47;75.33;102605.53;6246502;22;20017;-78
2023/05/29 04:50:59;;;;;;;17.70;2.70;;;;;;;12.01;74.02;102606.31;6221850;22;20023;-79
2023/05/29 04:53:26;;;;;;;8.85;2.15;;;;;;;12.33;71.80;102600.53;6246299;22;20036;-79
2023/05/29 04:55:52;;;;;;;20.67;3.33;;;;;;;12.87;70.31;102605.69;6221966;22;20025;-79
2023/05/29 04:58:21;;;;;;;20.90;2.58;;;;;;;14.08;65.88;102605.09;6245422;22;20114;-79
2023/05/29 05:00:49;;;;;;;12.02;2.58;;;;;;;14.62;62.96;102602.66;6221989;22;20473;-79
2023/05/29 05:03:16;;;;;;;9.40;2.40;;;;;;;14.84;61.49;102598.22;6220754;22;20027;-78
2023/05/29 05:05:43;;;;;;;11.63;2.90;;;;;;;15.32;59.76;102602.63;6221812;22;20031;-79
2023/05/29 05:08:11;;;;;;;13.82;2.75;;;;;;;16.06;57.87;102611.59;6246580;22;20024;-79
2023/05/29 05:10:38;;;;;;;8.68;2.33;;;;;;;16.34;55.85;102618.75;6246902;22;20512;-78
2023/05/29 05:13:07;;;;;;;10.43;2.70;;;;;;;16.78;54.19;102608.84;6220606;22;20056;-80
2023/05/29 05:15:35;;;;;;;11.85;2.72;;;;;;;17.17;53.37;102620.91;6221977;22;20425;-79
2023/05/29 05:18:03;;;;;;;7.25;2.42;;;;;;;17.63;51.61;102623.78;6246803;22;20040;-79
2023/05/29 05:20:31;;;;;;;10.73;2.47;;;;;;;17.75;51.25;102616.81;6246341;22;20021;-79
2023/05/29 05:22:59;;;;;;;10.77;2.53;;;;;;;17.81;50.59;102631.22;6246804;22;20013;-79
2023/05/29 05:25:26;;;;;;;10.35;2.92;;;;;;;18.07;50.31;102618.25;6220637;22;20020;-79
2023/05/29 05:27:53;;;;;;;10.95;2.83;;;;;;;18.22;48.95;102611.84;6248770;22;20478;-80
2023/05/29 05:30:21;;;;;;;14.00;2.50;;;;;;;18.26;49.35;102614.41;6247377;22;20493;-78
2023/05/29 05:32:48;;;;;;;7.88;2.17;;;;;;;18.30;48.88;102617.72;6248208;22;20021;-80
2023/05/29 05:35:15;;;;;;;11.55;2.78;;;;;;;18.05;49.31;102618.69;6247449;22;20028;-82
2023/05/29 05:37:42;;;;;;;12.18;2.28;;;;;;;18.13;48.72;102619.16;6223182;22;20095;-80
2023/05/29 05:40:10;;;;;;;9.23;2.22;;;;;;;18.06;49.01;102614.81;6247984;22;20016;-81
2023/05/29 05:42:47;;;;;;;11.35;2.20;;;;;;;17.98;48.54;102627.84;6224999;22;20052;-79
2023/05/29 05:45:14;;;;;;;6.65;2.17;;;;;;;17.67;49.55;102622.47;6246997;22;20033;-78
2023/05/29 05:47:41;;;;;;;10.73;2.42;;;;;;;17.33;50.42;102615.28;6248055;22;20078;-80
2023/05/29 05:50:08;;;;;;;7.82;2.65;;;;;;;17.38;50.20;102630.13;6247641;22;20465;-79
2023/05/29 05:52:36;;;;;;;9.60;2.25;;;;;;;16.90;50.50;102624.13;6247606;22;20055;-78
2023/05/29 05:55:03;;;;;;;6.65;2.42;;;;;;;16.82;51.29;102627.50;6249400;22;20021;-79
2023/05/29 05:57:32;;;;;;;9.77;2.47;;;;;;;16.70;51.57;102628.34;6246724;22;20112;-79
2023/05/29 06:00:12;;;;;;;11.45;3.05;;;;;;;16.80;51.56;102632.56;6248280;22;20347;-78
2023/05/29 06:02:42;;;;;;;11.68;2.40;;;;;;;16.50;51.92;102629.31;6250122;22;20024;-80
2023/05/29 06:05:11;;;;;;;11.30;2.88;;;;;;;16.14;52.81;102637.78;6222884;22;20051;-80
2023/05/29 06:07:38;;;;;;;11.02;2.47;;;;;;;16.15;52.69;102638.53;6247859;22;20535;-82
2023/05/29 06:10:05;;;;;;;9.70;2.42;;;;;;;16.10;52.89;102637.16;6221884;22;20453;-80
2023/05/29 06:12:34;;;;;;;14.02;2.88;;;;;;;16.23;53.12;102640.59;6222626;22;20640;-81
2023/05/29 06:15:09;;;;;;;10.30;2.65;;;;;;;16.26;53.33;102636.28;6224243;22;20021;-79
2023/05/29 06:17:37;;;;;;;7.70;2.22;;;;;;;16.24;52.80;102631.34;6248168;22;20023;-80
2023/05/29 06:20:10;;;;;;;10.63;2.20;;;;;;;15.94;52.56;102631.91;6248505;22;20445;-80
2023/05/29 06:22:37;;;;;;;12.27;2.53;;;;;;;15.68;53.20;102637.28;6222671;22;20103;-76
2023/05/29 06:25:04;;;;;;;8.05;2.40;;;;;;;15.65;53.69;102634.69;6249453;22;20017;-77
2023/05/29 06:27:34;;;;;;;6.95;2.50;;;;;;;15.53;53.39;102630.81;6223442;22;20049;-78
2023/05/29 06:30:02;;;;;;;11.25;2.42;;;;;;;15.23;54.01;102644.69;6222890;22;20067;-79
2023/05/29 06:32:29;;;;;;;11.45;2.35;;;;;;;15.22;54.45;102633.19;6246984;22;20036;-79
2023/05/29 06:34:58;;;;;;;11.75;2.65;;;;;;;15.43;54.62;102631.88;6247870;22;20419;-76
2023/05/29 06:37:25;;;;;;;5.95;2.42;;;;;;;15.41;53.78;102634.22;6222468;22;20013;-79
2023/05/29 06:39:51;;;;;;;7.63;2.15;;;;;;;15.51;54.66;102635.84;6246900;22;20016;-79
2023/05/29 06:42:18;;;;;;;6.20;2.22;;;;;;;15.65;53.26;102645.44;6248878;22;20025;-78
2023/05/29 06:44:45;;;;;;;10.82;2.65;;;;;;;15.48;53.35;102639.38;6247818;22;20115;-80
2023/05/29 06:47:14;;;;;;;10.35;2.50;;;;;;;15.56;53.23;102639.94;6249850;22;20021;-80
2023/05/29 06:49:40;;;;;;;13.77;2.58;;;;;;;15.55;52.89;102644.56;6248157;22;20016;-79
2023/05/29 06:52:07;;;;;;;8.77;1.83;;;;;;;15.56;52.64;102654.13;6247735;22;20514;-80
2023/05/29 06:55:06;;;;;;;6.72;1.95;;;;;;;15.65;52.72;102653.47;6248897;22;20331;-79
2023/05/29 06:57:33;;;;;;;8.50;2.05;;;;;;;15.80;52.38;102648.47;6248980;22;21137;-80
2023/05/29 07:00:00;;;;;;;8.18;2.40;;;;;;;15.76;51.78;102647.81;6249713;22;20459;-80
2023/05/29 07:02:27;;;;;;;11.35;2.78;;;;;;;15.95;52.72;102647.59;6247063;22;20025;-79
2023/05/29 07:04:56;;;;;;;11.00;2.85;;;;;;;16.04;51.48;102646.19;6247749;22;20016;-80
2023/05/29 07:07:26;;;;;;;9.23;2.25;;;;;;;16.03;51.71;102650.81;6247365;22;20612;-79
2023/05/29 07:09:53;;;;;;;11.05;2.22;;;;;;;15.91;51.95;102648.88;6222508;22;20877;-79
2023/05/29 07:12:24;;;;;;;11.50;2.60;;;;;;;16.02;51.89;102654.66;6247180;22;20059;-81
2023/05/29 07:14:51;;;;;;;15.25;3.10;;;;;;;16.26;51.60;102655.84;6248017;22;20024;-83
2023/05/29 07:17:18;;;;;;;9.45;2.30;;;;;;;16.28;51.56;102658.84;6247153;22;20027;-79
2023/05/29 07:19:49;;;;;;;7.38;2.58;;;;;;;16.23;50.64;102653.25;6248079;22;20044;-80
2023/05/29 07:22:16;;;;;;;10.10;2.50;;;;;;;16.18;51.33;102651.88;6249231;22;20063;-82
2023/05/29 07:24:42;;;;;;;9.88;2.75;;;;;;;16.40;50.98;102660.00;6247503;22;20020;-80
2023/05/29 07:27:09;;;;;;;10.45;2.40;;;;;;;16.44;50.28;102663.31;6222512;22;20023;-80
2023/05/29 07:29:36;;;;;;;8.82;2.47;;;;;;;16.56;50.70;102667.16;6247938;22;20465;-83
2023/05/29 07:32:03;;;;;;;7.90;2.50;;;;;;;16.56;49.94;102667.16;6249709;22;20016;-77
2023/05/29 07:34:31;;;;;;;8.93;2.60;;;;;;;16.62;49.62;102671.56;6222357;22;20108;-80
2023/05/29 07:37:04;;;;;;;6.88;2.35;;;;;;;16.64;49.57;102660.41;6247290;22;20027;-78
2023/05/29 07:39:34;;;;;;;7.90;2.28;;;;;;;16.68;49.21;102674.47;6247754;22;20016;-79
2023/05/29 07:42:08;;;;;;;11.15;2.58;;;;;;;16.89;48.94;102665.69;6247578;22;20016;-79
2023/05/29 07:44:37;;;;;;;8.93;2.60;;;;;;;17.10;48.78;102658.06;6249436;22;20016;-78
2023/05/29 07:47:04;;;;;;;10.55;2.20;;;;;;;17.30;48.19;102669.25;6222757;22;20534;-79
2023/05/29 07:49:36;;;;;;;7.95;1.95;;;;;;;17.34;48.57;102670.63;6247530;22;20017;-79
2023/05/29 07:52:03;;;;;;;5.18;2.47;;;;;;;17.57;47.60;102666.72;6247422;22;20024;-79
2023/05/29 07:54:32;;;;;;;6.40;2.40;;;;;;;17.62;47.89;102670.75;6222365;22;20017;-79
2023/05/29 07:57:02;;;;;;;10.88;2.53;;;;;;;17.65;47.41;102667.97;6222854;22;20459;-80
2023/05/29 07:59:29;;;;;;;12.52;3.13;;;;;;;17.79;46.63;102672.06;6247129;22;20096;-82
2023/05/29 08:02:02;;;;;;;6.85;2.50;;;;;;;17.85;46.73;102678.38;6247580;22;20031;-82
2023/05/29 08:04:48;;;;;;;8.25;2.88;;;;;;;17.85;47.18;102667.59;6246837;22;20028;-78
2023/05/29 08:07:17;;;;;;;8.18;2.55;;;;;;;17.93;45.76;102684.25;6246155;22;20017;-82
2023/05/29 08:09:44;;;;;;;6.05;2.38;;;;;;;17.98;45.46;102670.94;6248105;22;20012;-79
2023/05/29 08:12:10;;;;;;;7.22;2.22;;;;;;;18.11;45.61;102673.50;6247281;22;20020;-79
2023/05/29 08:14:37;;;;;;;10.45;2.83;;;;;;;18.13;44.97;102676.50;6222090;22;20017;-79
2023/05/29 08:17:04;;;;;;;8.75;2.40;;;;;;;18.06;45.25;102676.78;6247534;22;20045;-79
2023/05/29 08:19:30;;;;;;;8.70;2.60;;;;;;;17.99;45.55;102680.50;6247281;22;20019;-79
2023/05/29 08:21:57;;;;;;;6.60;2.65;;;;;;;18.29;45.45;102683.59;6247321;22;20016;-79
2023/05/29 08:24:23;;;;;;;4.65;2.42;;;;;;;18.54;44.11;102672.53;6248576;22;20067;-78
2023/05/29 08:26:50;;;;;;;4.70;1.90;;;;;;;18.57;44.42;102681.69;6247613;22;20371;-79
2023/05/29 08:29:17;;;;;;;9.13;2.75;;;;;;;18.53;44.59;102689.16;6248481;22;20013;-77
2023/05/29 08:31:43;;;;;;;9.90;2.78;;;;;;;18.40;44.71;102688.53;6247595;22;20112;-78
2023/05/29 08:34:10;;;;;;;7.10;2.70;;;;;;;18.59;44.88;102676.59;6247544;22;20016;-79
2023/05/29 08:36:36;;;;;;;9.98;2.42;;;;;;;18.58;44.11;102675.84;6246666;22;20017;-79
2023/05/29 08:39:03;;;;;;;9.77;2.83;;;;;;;18.54;43.34;102674.50;6247534;22;20509;-78
2023/05/29 08:41:49;;;;;;;7.13;2.55;;;;;;;18.61;44.90;102679.63;6247051;22;20021;-78
2023/05/29 08:44:21;;;;;;;6.20;2.40;;;;;;;18.65;43.72;102672.88;6248464;22;20056;-80
2023/05/29 08:46:55;;;;;;;8.45;2.10;;;;;;;18.61;43.42;102676.94;6247616;22;20037;-77
2023/05/29 08:49:22;;;;;;;7.20;2.67;;;;;;;18.46;45.13;102684.81;6247810;22;20013;-77
2023/05/29 08:52:05;;;;;;;6.18;2.15;;;;;;;18.60;44.67;102683.53;6249053;22;20104;-79
2023/05/29 08:54:32;;;;;;;4.88;2.30;;;;;;;18.78;43.75;102686.22;6248567;22;20640;-78
2023/05/29 08:57:01;;;;;;;6.88;2.50;;;;;;;18.69;42.47;102683.53;6249064;22;20013;-78
2023/05/29 08:59:30;;;;;;;7.88;2.50;;;;;;;18.76;43.24;102685.94;6247976;22;20067;-81
2023/05/29 09:01:57;;;;;;;6.35;2.20;;;;;;;18.88;42.82;102693.09;6247564;22;20374;-78
2023/05/29 09:04:23;;;;;;;7.05;2.50;;;;;;;18.84;43.33;102695.19;6248922;22;20375;-78
2023/05/29 09:06:52;;;;;;;8.25;2.70;;;;;;;18.93;43.03;102689.06;6223602;22;20108;-81
2023/05/29 09:09:19;;;;;;;6.53;2.28;;;;;;;19.10;42.23;102690.25;6247993;22;20048;-79
2023/05/29 09:11:45;;;;;;;11.80;2.47;;;;;;;19.09;42.38;102698.81;6248688;22;20391;-80
2023/05/29 09:14:35;;;;;;;7.82;2.50;;;;;;;18.91;42.57;102694.16;6249580;22;20040;-79
2023/05/29 09:17:03;;;;;;;148.50;109.53;;;;;;;19.03;43.36;102700.59;6249115;22;20012;-78
2023/05/29 09:19:30;;;;;;;8.65;4.03;;;;;;;19.28;41.94;102695.63;6249284;22;20013;-77
2023/05/29 09:22:05;;;;;;;7.35;3.00;;;;;;;19.39;42.22;102697.09;6250299;22;20021;-79
2023/05/29 09:24:32;;;;;;;9.48;3.50;;;;;;;19.42;41.51;102690.78;6249962;22;20023;-79
2023/05/29 09:27:00;;;;;;;11.25;2.72;;;;;;;19.34;41.31;102687.66;6248434;22;20025;-79
2023/05/29 09:29:35;;;;;;;11.13;2.92;;;;;;;19.44;41.55;102701.88;6249715;22;20095;-81
2023/05/29 09:32:08;;;;;;;9.48;2.60;;;;;;;19.42;41.32;102698.91;6250414;22;20020;-81
2023/05/29 09:34:35;;;;;;;8.55;3.47;;;;;;;19.43;42.04;102692.28;6249364;22;20012;-81
2023/05/29 09:37:10;;;;;;;7.00;2.30;;;;;;;19.72;42.10;102681.72;6250569;22;20488;-81
2023/05/29 09:39:53;;;;;;;11.02;2.60;;;;;;;19.72;41.76;102689.81;6248292;22;20027;-82
2023/05/29 09:42:19;;;;;;;11.63;2.80;;;;;;;19.89;40.38;102688.25;6249527;22;20091;-82
2023/05/29 09:44:51;;;;;;;8.10;2.97;;;;;;;19.73;40.50;102685.16;6250341;22;20139;-82
2023/05/29 09:47:18;;;;;;;12.20;2.95;;;;;;;19.79;40.41;102681.38;6248262;22;20028;-83
2023/05/29 09:49:49;;;;;;;5.07;2.58;;;;;;;19.89;40.55;102690.97;6250113;22;20017;-83
2023/05/29 09:52:21;;;;;;;6.55;2.50;;;;;;;19.77;40.78;102686.50;6250061;22;20100;-80
2023/05/29 09:54:50;;;;;;;7.95;2.83;;;;;;;19.90;40.41;102680.91;6250413;22;20075;-78
2023/05/29 09:57:17;;;;;;;6.70;2.75;;;;;;;19.86;40.41;102680.31;6247131;22;20020;-79
2023/05/29 09:59:46;;;;;;;17.92;3.60;;;;;;;19.89;40.16;102677.44;6250431;22;20080;-81
2023/05/29 10:02:15;;;;;;;10.60;3.60;;;;;;;20.06;41.80;102680.50;6247756;22;20508;-81
2023/05/29 10:04:46;;;;;;;7.70;2.65;;;;;;;20.20;40.26;102685.22;6250135;22;20475;-82
2023/05/29 10:07:25;;;;;;;8.48;2.65;;;;;;;20.47;40.41;102678.16;6249990;22;20016;-81
2023/05/29 10:09:58;;;;;;;6.35;2.70;;;;;;;20.47;38.61;102681.63;6248731;22;20021;-82
2023/05/29 10:12:27;;;;;;;9.75;2.72;;;;;;;20.05;38.97;102676.28;6247799;22;20447;-80
2023/05/29 10:14:59;;;;;;;5.95;2.83;;;;;;;19.91;39.33;102672.31;6249614;22;20540;-79
2023/05/29 10:17:32;;;;;;;13.23;3.03;;;;;;;19.86;40.14;102675.66;6247485;22;20113;-79
2023/05/29 10:20:01;;;;;;;20.73;3.38;;;;;;;19.83;39.81;102668.47;6250258;22;20107;-79
2023/05/29 10:22:29;;;;;;;11.70;3.20;;;;;;;19.80;39.90;102672.06;6249476;22;20507;-77
2023/05/29 10:24:57;;;;;;;9.43;3.00;;;;;;;19.80;39.90;102666.66;6250126;22;20084;-80
2023/05/29 10:27:25;;;;;;;13.90;3.20;;;;;;;19.85;40.00;102668.75;6249357;22;20594;-79
2023/05/29 10:30:00;;;;;;;12.48;3.00;;;;;;;20.09;40.60;102666.06;6247974;22;20024;-80
2023/05/29 10:32:32;;;;;;;10.23;3.38;;;;;;;20.27;39.92;102667.91;6248947;22;20021;-80
2023/05/29 10:35:08;;;;;;;10.70;3.05;;;;;;;20.55;39.62;102663.06;6248751;22;20012;-79
2023/05/29 10:37:55;;;;;;;10.45;3.13;;;;;;;20.67;40.12;102664.78;6248288;22;20017;-79
2023/05/29 10:40:27;;;;;;;7.88;3.13;;;;;;;20.67;39.02;102666.75;6249142;22;20017;-78
2023/05/29 10:43:00;;;;;;;7.38;2.53;;;;;;;20.60;38.09;102657.78;6249947;22;20080;-79
2023/05/29 10:45:30;;;;;;;10.88;3.00;;;;;;;20.64;38.00;102657.59;6248570;22;20020;-78
2023/05/29 10:48:12;;;;;;;12.48;3.05;;;;;;;20.72;38.67;102658.00;6248169;22;20017;-79
2023/05/29 10:50:47;;;;;;;8.55;3.15;;;;;;;20.70;38.32;102663.88;6248743;22;20121;-79
2023/05/29 10:53:22;;;;;;;5.65;2.97;;;;;;;20.79;37.45;102660.34;6247785;22;20055;-80
2023/05/29 10:55:50;;;;;;;11.73;2.85;;;;;;;20.79;37.75;102661.09;6249994;22;20048;-80
2023/05/29 10:58:25;;;;;;;10.65;2.75;;;;;;;20.98;37.70;102658.94;6248725;22;20020;-79
2023/05/29 11:00:55;;;;;;;7.40;2.67;;;;;;;20.87;36.24;102656.03;6249305;22;20016;-81
2023/05/29 11:03:30;;;;;;;6.03;2.75;;;;;;;20.75;36.75;102660.53;6247609;22;20473;-81
2023/05/29 11:06:10;;;;;;;11.63;3.63;;;;;;;20.42;37.78;102657.91;6250081;22;20075;-80
2023/05/29 11:08:54;;;;;;;12.03;3.60;;;;;;;20.42;38.18;102649.78;6249693;22;20013;-81
2023/05/29 11:11:27;;;;;;;7.85;2.95;;;;;;;20.63;38.74;102659.56;6249176;22;20230;-81
2023/05/29 11:13:56;;;;;;;10.57;3.20;;;;;;;20.81;38.62;102653.22;6249706;22;20027;-81
2023/05/29 11:16:28;;;;;;;8.85;3.28;;;;;;;21.02;38.41;102656.81;6246991;22;20016;-80
2023/05/29 11:18:57;;;;;;;6.53;3.35;;;;;;;21.12;36.83;102649.34;6249780;22;20040;-80
2023/05/29 11:21:29;;;;;;;9.15;3.20;;;;;;;21.06;35.27;102651.94;6249476;22;20012;-80
2023/05/29 11:23:58;;;;;;;10.75;3.20;;;;;;;21.00;35.61;102651.09;6222538;22;20414;-81
2023/05/29 11:26:28;;;;;;;7.97;3.13;;;;;;;21.15;35.73;102648.41;6247120;22;20450;-80
2023/05/29 11:28:59;;;;;;;9.55;3.10;;;;;;;21.11;35.91;102654.00;6247701;22;20413;-80
2023/05/29 11:31:28;;;;;;;10.80;3.10;;;;;;;20.82;36.49;102654.72;6249060;22;20497;-80